Time;durP1;ratioP1;P1;durP2;ratioP2;P2;SDS_P1;SDS_P2;PMS_P1;PMS_P2;Temp;Humidity;BMP_temperature;BMP_pressure;BME280_temperature;BME280_humidity;BME280_pressure;Samples;Min_cycle;Max_cycle;Signal;HPM_P1;HPM_P2
2021/12/11 00:00:21;;;;;;;;;;;;;;;3.85;72.75;98863.97;4353986;32;33002;-85
2021/12/11 00:03:06;;;;;;;;;;;;;;;3.62;73.54;98863.22;4353925;32;33687;-85
2021/12/11 00:05:34;;;;;;;;;;;;;;;3.62;73.34;98865.03;4343160;32;35894;-85
2021/12/11 00:08:04;;;;;;;;;;;;;;;3.77;73.21;98877.78;4347692;32;34754;-85
2021/12/11 00:10:34;;;;;;;;;;;;;;;3.84;72.75;98883.38;4345640;32;33011;-86
2021/12/11 00:13:02;;;;;;;;;;;;;;;3.62;73.74;98886.06;4328986;32;31877;-85
2021/12/11 00:15:32;;;;;;;;;;;;;;;3.69;73.48;98893.34;4345997;32;35917;-85
2021/12/11 00:18:03;;;;;;;;;;;;;;;3.62;73.66;98888.69;4355635;32;34280;-86
2021/12/11 00:20:32;;;;;;;;;;;;;;;3.56;73.80;98883.91;4345482;32;33852;-86
2021/12/11 00:23:00;;;;;;;;;;;;;;;3.63;73.42;98887.72;4343709;32;33659;-85
2021/12/11 00:25:27;;;;;;;;;;;;;;;3.61;73.46;98900.19;4329200;32;34719;-86
2021/12/11 00:28:02;;;;;;;;;;;;;;;3.52;74.06;98904.34;4342317;32;34673;-85
2021/12/11 00:30:31;;;;;;;;;;;;;;;3.55;74.17;98908.53;4353826;32;33462;-85
2021/12/11 00:33:00;;;;;;;;;;;;;;;3.69;73.25;98914.38;4349180;32;33229;-86
2021/12/11 00:35:28;;;;;;;;;;;;;;;3.84;72.82;98915.78;4341487;32;35220;-85
2021/12/11 00:38:09;;;;;;;;;;;;;;;3.50;74.01;98927.31;4355220;32;34596;-85
2021/12/11 00:40:39;;;;;;;;;;;;;;;3.80;72.95;98935.38;4341745;32;32945;-85
2021/12/11 00:43:07;;;;;;;;;;;;;;;3.88;72.58;98946.12;4355343;32;34070;-84
2021/12/11 00:45:36;;;;;;;;;;;;;;;3.86;72.77;98939.34;4344688;32;33780;-85
2021/12/11 00:48:05;;;;;;;;;;;;;;;3.92;72.42;98954.63;4353955;32;35174;-85
2021/12/11 00:50:43;;;;;;;;;;;;;;;3.85;72.36;98953.44;4346391;32;32603;-86
2021/12/11 00:53:12;;;;;;;;;;;;;;;3.90;72.49;98960.03;4329133;32;31992;-85
2021/12/11 00:55:50;;;;;;;;;;;;;;;3.64;73.37;98963.03;4342653;32;35107;-86
2021/12/11 00:58:23;;;;;;;;;;;;;;;3.65;73.36;98972.59;4347840;32;33287;-85
2021/12/11 01:01:03;;;;;;;;;;;;;;;3.72;73.20;98968.53;4344663;32;33345;-85
2021/12/11 01:03:34;;;;;;;;;;;;;;;3.70;73.52;98980.97;4351039;32;34276;-86
2021/12/11 01:06:13;;;;;;;;;;;;;;;3.88;72.71;98971.63;4341830;32;35027;-85
2021/12/11 01:08:43;;;;;;;;;;;;;;;3.69;72.86;98963.53;4332970;32;33928;-86
2021/12/11 01:11:17;;;;;;;;;;;;;;;3.61;73.21;98972.00;4341517;32;32616;-85
2021/12/11 01:13:53;;;;;;;;;;;;;;;3.61;73.74;98972.00;4355038;32;34070;-85
2021/12/11 01:16:21;;;;;;;;;;;;;;;3.75;72.83;98979.66;4345413;32;35006;-85
2021/12/11 01:18:51;;;;;;;;;;;;;;;3.80;72.63;98981.91;4353272;32;33999;-86
2021/12/11 01:26:34;;;;;;;;;;;;;;;4.12;71.44;98990.69;4353354;32;35005;-85
2021/12/11 01:29:04;;;;;;;;;;;;;;;4.20;71.16;98985.66;4347650;32;34855;-86
2021/12/11 01:31:31;;;;;;;;;;;;;;;4.06;71.97;98983.31;4353517;32;33965;-86
2021/12/11 01:33:59;;;;;;;;;;;;;;;4.48;70.49;98982.44;4344213;32;32582;-85
2021/12/11 01:36:26;;;;;;;;;;;;;;;4.50;69.72;98981.34;4349631;32;35340;-85
2021/12/11 01:38:55;;;;;;;;;;;;;;;4.39;70.42;98986.66;4328459;32;33109;-86
2021/12/11 01:41:23;;;;;;;;;;;;;;;4.45;70.14;98986.16;4349978;32;32841;-86
2021/12/11 01:43:54;;;;;;;;;;;;;;;4.37;70.46;98990.38;4340767;32;33312;-85
2021/12/11 01:46:24;;;;;;;;;;;;;;;4.43;70.35;98988.06;4340931;32;33689;-85
2021/12/11 01:48:56;;;;;;;;;;;;;;;4.32;70.46;98996.03;4341134;32;34745;-85
2021/12/11 01:51:34;;;;;;;;;;;;;;;4.39;70.36;99002.47;4349378;32;34068;-85
2021/12/11 01:54:05;;;;;;;;;;;;;;;4.39;70.90;99004.25;4354711;32;34559;-85
2021/12/11 01:56:33;;;;;;;;;;;;;;;4.46;70.08;99013.34;4349553;32;34435;-86
2021/12/11 01:59:11;;;;;;;;;;;;;;;4.31;70.71;99001.41;4345289;32;34905;-85
2021/12/11 02:01:49;;;;;;;;;;;;;;;4.47;70.20;98994.78;4355080;32;33829;-86
2021/12/11 02:04:18;;;;;;;;;;;;;;;4.32;70.81;98985.50;4345077;32;34475;-85
2021/12/11 02:06:49;;;;;;;;;;;;;;;4.44;70.32;98988.94;4353418;32;35703;-85
2021/12/11 02:09:19;;;;;;;;;;;;;;;4.49;70.16;98992.84;4353278;32;33162;-85
2021/12/11 02:11:50;;;;;;;;;;;;;;;4.58;69.81;98985.97;4344170;32;33096;-85
2021/12/11 02:14:23;;;;;;;;;;;;;;;4.31;71.09;98983.81;4340666;32;33846;-85
2021/12/11 02:16:51;;;;;;;;;;;;;;;4.43;70.67;98974.09;4353161;32;35358;-85
2021/12/11 02:19:29;;;;;;;;;;;;;;;4.52;70.12;98979.41;4340520;32;33269;-85
2021/12/11 02:22:00;;;;;;;;;;;;;;;4.61;70.18;98976.03;4349033;32;32325;-85
2021/12/11 02:24:47;;;;;;;;;;;;;;;4.66;69.40;98973.00;4355047;32;33656;-85
2021/12/11 02:27:21;;;;;;;;;;;;;;;4.61;69.92;98977.84;4340714;32;34081;-85
2021/12/11 02:29:56;;;;;;;;;;;;;;;4.60;70.03;98984.91;4352768;32;34273;-86
2021/12/11 02:32:29;;;;;;;;;;;;;;;4.53;70.36;98975.81;4341021;32;32607;-85
2021/12/11 02:35:04;;;;;;;;;;;;;;;4.94;69.19;98972.37;4352951;32;33101;-85
2021/12/11 02:37:46;;;;;;;;;;;;;;;4.85;69.04;98970.50;4348157;32;35224;-86
2021/12/11 02:40:18;;;;;;;;;;;;;;;4.80;69.25;98981.44;4354369;32;33869;-85
2021/12/11 02:42:57;;;;;;;;;;;;;;;4.79;69.69;98971.06;4354636;32;33588;-86
2021/12/11 02:45:28;;;;;;;;;;;;;;;4.68;70.15;98966.66;4354618;32;33382;-86
2021/12/11 02:47:58;;;;;;;;;;;;;;;4.80;69.62;98968.25;4364962;32;33518;-85
2021/12/11 02:50:33;;;;;;;;;;;;;;;5.15;68.08;98970.56;4354460;32;34036;-86
2021/12/11 02:53:12;;;;;;;;;;;;;;;4.66;69.72;98981.75;4352809;32;33040;-86
2021/12/11 02:55:42;;;;;;;;;;;;;;;4.76;69.59;98973.91;4364207;32;33124;-86
2021/12/11 02:58:18;;;;;;;;;;;;;;;4.84;69.58;98968.84;4340844;32;34428;-86
2021/12/11 03:00:47;;;;;;;;;;;;;;;4.87;69.62;98972.06;4340246;32;34310;-86
2021/12/11 03:03:16;;;;;;;;;;;;;;;5.03;68.87;98963.69;4354033;32;33941;-85
2021/12/11 03:05:50;;;;;;;;;;;;;;;5.00;69.00;98951.59;4340562;32;34075;-86
2021/12/11 03:08:20;;;;;;;;;;;;;;;5.21;68.55;98955.06;4340484;32;35109;-85
2021/12/11 03:10:56;;;;;;;;;;;;;;;5.22;68.34;98959.38;4357212;32;33520;-86
2021/12/11 03:13:24;;;;;;;;;;;;;;;5.33;67.90;98961.91;4365264;32;32061;-86
2021/12/11 03:15:53;;;;;;;;;;;;;;;5.42;67.73;98961.12;4354689;32;33458;-86
2021/12/11 03:18:21;;;;;;;;;;;;;;;5.43;67.66;98966.25;4354194;32;35239;-86
2021/12/11 03:20:49;;;;;;;;;;;;;;;5.67;66.93;98972.06;4364696;32;34427;-85
2021/12/11 03:23:17;;;;;;;;;;;;;;;5.85;65.19;98980.19;4352199;32;34006;-86
2021/12/11 03:25:45;;;;;;;;;;;;;;;5.84;65.27;98994.34;4373191;32;33315;-86
2021/12/11 03:28:20;;;;;;;;;;;;;;;5.53;66.21;99004.09;4340835;32;35173;-85
2021/12/11 03:30:56;;;;;;;;;;;;;;;5.56;66.15;99005.59;4352407;32;33916;-86
2021/12/11 03:33:26;;;;;;;;;;;;;;;5.69;64.91;99007.06;4339740;32;32971;-86
2021/12/11 03:35:55;;;;;;;;;;;;;;;5.52;65.53;99020.03;4351479;32;32383;-87
2021/12/11 03:38:24;;;;;;;;;;;;;;;5.81;64.59;99021.88;4355783;32;34251;-85
2021/12/11 03:40:51;;;;;;;;;;;;;;;5.59;65.25;99032.56;4340194;32;33266;-86
2021/12/11 03:43:21;;;;;;;;;;;;;;;5.48;65.30;99026.53;4340571;32;33966;-86
2021/12/11 03:45:51;;;;;;;;;;;;;;;5.48;65.23;99029.16;4364561;32;33136;-85
2021/12/11 03:48:31;;;;;;;;;;;;;;;5.24;66.27;99033.06;4356001;32;34809;-86
2021/12/11 03:51:01;;;;;;;;;;;;;;;5.39;66.18;99034.41;4364302;32;34591;-85
2021/12/11 03:53:30;;;;;;;;;;;;;;;5.17;66.62;99040.66;4353837;32;32882;-86
2021/12/11 03:56:01;;;;;;;;;;;;;;;5.10;67.13;99025.47;4353953;32;33836;-86
2021/12/11 03:58:30;;;;;;;;;;;;;;;5.32;66.37;99038.53;4359201;32;34573;-86
2021/12/11 04:01:03;;;;;;;;;;;;;;;5.33;66.40;99029.62;4356018;32;35553;-85
2021/12/11 04:03:32;;;;;;;;;;;;;;;5.32;66.54;99025.34;4356052;32;33917;-85
2021/12/11 04:06:00;;;;;;;;;;;;;;;5.41;66.19;99016.63;4327265;32;32590;-85
2021/12/11 04:08:29;;;;;;;;;;;;;;;5.41;66.20;99021.91;4357620;32;36126;-85
2021/12/11 04:10:57;;;;;;;;;;;;;;;5.47;66.25;99024.84;4357573;32;33730;-85
2021/12/11 04:13:24;;;;;;;;;;;;;;;5.41;66.14;99022.75;4356825;32;31544;-85
2021/12/11 04:15:52;;;;;;;;;;;;;;;5.35;65.91;99025.09;4359453;32;33494;-86
2021/12/11 04:18:20;;;;;;;;;;;;;;;5.08;66.24;99033.50;4356995;32;36083;-85
2021/12/11 04:20:48;;;;;;;;;;;;;;;5.35;64.94;99036.47;4339373;32;34047;-85
2021/12/11 04:23:16;;;;;;;;;;;;;;;5.26;65.07;99033.78;4351552;32;31999;-85
2021/12/11 04:25:45;;;;;;;;;;;;;;;5.35;65.08;99027.72;4348595;32;31946;-85
2021/12/11 04:28:16;;;;;;;;;;;;;;;5.52;64.78;99035.88;4351383;32;35025;-87
2021/12/11 04:30:44;;;;;;;;;;;;;;;5.56;64.54;99042.53;4363885;32;35244;-86
2021/12/11 04:33:12;;;;;;;;;;;;;;;5.78;64.09;99045.03;4351070;32;31787;-85
2021/12/11 04:35:43;;;;;;;;;;;;;;;5.81;63.89;99047.41;4357174;32;33858;-85
2021/12/11 04:38:11;;;;;;;;;;;;;;;5.76;64.08;99050.44;4357278;32;37046;-86
2021/12/11 04:40:42;;;;;;;;;;;;;;;5.33;64.57;99062.13;4363842;32;34365;-86
2021/12/11 04:43:16;;;;;;;;;;;;;;;5.39;64.64;99060.78;4354044;32;33520;-85
2021/12/11 04:45:49;;;;;;;;;;;;;;;5.40;64.37;99059.81;4345571;32;32382;-85
2021/12/11 04:48:36;;;;;;;;;;;;;;;5.57;63.90;99045.06;4371385;32;34957;-85
2021/12/11 05:09:24;;;;;;;;;;;;;;;5.67;64.21;99082.06;4363830;32;35832;-85
2021/12/11 05:14:44;;;;;;;;;;;;;;;5.69;64.09;99080.94;4354819;32;33241;-84
2021/12/11 05:17:13;;;;;;;;;;;;;;;5.61;64.02;99088.66;4358270;32;33780;-86
2021/12/11 05:19:41;;;;;;;;;;;;;;;5.63;64.06;99089.41;4366234;32;34759;-85
2021/12/11 05:22:09;;;;;;;;;;;;;;;5.75;63.80;99083.06;4353349;32;33967;-86
2021/12/11 05:24:38;;;;;;;;;;;;;;;5.71;63.87;99086.91;4352929;32;32742;-85
2021/12/11 05:27:05;;;;;;;;;;;;;;;5.76;63.50;99086.53;4365807;32;33532;-86
2021/12/11 05:29:33;;;;;;;;;;;;;;;5.67;63.61;99088.16;4365316;32;34891;-85
2021/12/11 05:32:01;;;;;;;;;;;;;;;5.63;63.82;99083.28;4359458;32;35348;-86
2021/12/11 05:34:29;;;;;;;;;;;;;;;5.28;64.41;99082.78;4365303;32;33387;-85
2021/12/11 05:36:56;;;;;;;;;;;;;;;5.56;63.45;99090.03;4355958;32;34230;-86
2021/12/11 05:39:24;;;;;;;;;;;;;;;5.02;64.71;99099.94;4345195;32;34028;-85
2021/12/11 05:41:52;;;;;;;;;;;;;;;5.21;63.85;99104.50;4365413;32;35301;-85
2021/12/11 05:44:19;;;;;;;;;;;;;;;5.07;64.33;99105.66;4352870;32;32654;-85
2021/12/11 05:46:47;;;;;;;;;;;;;;;4.86;65.06;99107.44;4352708;32;32131;-86
2021/12/11 05:49:15;;;;;;;;;;;;;;;5.21;63.59;99105.38;4341131;32;33835;-86
2021/12/11 05:51:45;;;;;;;;;;;;;;;5.08;63.99;99099.41;4354522;32;33968;-85
2021/12/11 05:54:23;;;;;;;;;;;;;;;5.26;63.75;99104.97;4364983;32;33981;-85
2021/12/11 05:56:54;;;;;;;;;;;;;;;5.11;64.14;99107.09;4357695;32;33823;-85
2021/12/11 05:59:22;;;;;;;;;;;;;;;5.03;64.22;99120.06;4365377;32;34864;-85
2021/12/11 06:01:54;;;;;;;;;;;;;;;5.26;63.84;99123.44;4357733;32;35285;-86
2021/12/11 06:04:24;;;;;;;;;;;;;;;5.26;63.06;99128.72;4357895;32;32871;-84
2021/12/11 06:06:52;;;;;;;;;;;;;;;5.29;63.48;99141.63;4364757;32;34584;-85
2021/12/11 06:09:21;;;;;;;;;;;;;;;5.29;63.54;99144.28;4360411;32;34785;-85
2021/12/11 06:11:53;;;;;;;;;;;;;;;5.53;61.85;99151.81;4363921;32;34275;-85
2021/12/11 06:14:22;;;;;;;;;;;;;;;4.88;64.17;99167.88;4352944;32;31751;-85
2021/12/11 06:16:52;;;;;;;;;;;;;;;4.94;64.49;99176.16;4363208;32;34277;-85
2021/12/11 06:19:21;;;;;;;;;;;;;;;4.98;64.16;99187.31;4355882;32;35358;-85
2021/12/11 06:21:49;;;;;;;;;;;;;;;4.97;63.82;99193.50;4354416;32;34336;-85
2021/12/11 06:24:18;;;;;;;;;;;;;;;4.61;65.15;99199.94;4351782;32;34375;-86
2021/12/11 06:26:46;;;;;;;;;;;;;;;4.55;65.76;99215.37;4351375;32;33329;-86
2021/12/11 06:29:13;;;;;;;;;;;;;;;4.55;66.27;99210.13;4363657;32;35393;-87
2021/12/11 06:31:43;;;;;;;;;;;;;;;4.82;65.81;99215.84;4352095;32;34672;-85
2021/12/11 06:34:11;;;;;;;;;;;;;;;5.02;64.92;99208.03;4351907;32;32869;-86
2021/12/11 06:36:39;;;;;;;;;;;;;;;4.76;65.55;99216.31;4351962;32;32980;-86
2021/12/11 06:39:08;;;;;;;;;;;;;;;4.70;65.59;99230.00;4363962;32;33798;-86
2021/12/11 06:41:37;;;;;;;;;;;;;;;4.89;65.29;99231.03;4353024;32;35256;-86
2021/12/11 06:44:05;;;;;;;;;;;;;;;5.00;64.96;99243.38;4355085;32;33253;-87
2021/12/11 06:46:33;;;;;;;;;;;;;;;4.79;65.38;99251.16;4354850;32;34444;-85
2021/12/11 06:49:03;;;;;;;;;;;;;;;5.04;64.71;99243.00;4354071;32;34823;-85
2021/12/11 06:51:31;;;;;;;;;;;;;;;4.97;64.90;99246.22;4359831;32;34275;-85
2021/12/11 06:54:01;;;;;;;;;;;;;;;5.00;64.87;99251.28;4338310;32;31834;-85
2021/12/11 06:56:28;;;;;;;;;;;;;;;5.02;64.81;99250.19;4352215;32;33393;-86
2021/12/11 06:58:56;;;;;;;;;;;;;;;5.09;64.57;99264.53;4363424;32;33562;-86
2021/12/11 07:01:24;;;;;;;;;;;;;;;5.22;64.07;99264.38;4355439;32;35511;-86
2021/12/11 07:03:52;;;;;;;;;;;;;;;5.46;62.28;99267.69;4364114;32;32978;-86
2021/12/11 07:06:20;;;;;;;;;;;;;;;5.12;62.70;99281.91;4335876;32;32978;-85
2021/12/11 07:08:49;;;;;;;;;;;;;;;5.00;63.21;99281.09;4358432;32;35721;-85
2021/12/11 07:11:17;;;;;;;;;;;;;;;4.51;65.02;99287.72;4350234;32;33209;-85
2021/12/11 07:13:45;;;;;;;;;;;;;;;4.69;64.44;99305.56;4357302;32;32978;-86
2021/12/11 07:16:13;;;;;;;;;;;;;;;4.61;65.00;99312.38;4360130;32;32576;-85
2021/12/11 07:18:41;;;;;;;;;;;;;;;4.54;65.33;99316.44;4326574;32;35447;-85
2021/12/11 07:21:09;;;;;;;;;;;;;;;4.53;65.52;99325.31;4356247;32;34164;-85
2021/12/11 07:23:41;;;;;;;;;;;;;;;4.70;64.62;99332.75;4363531;32;32795;-85
2021/12/11 07:26:15;;;;;;;;;;;;;;;4.74;64.11;99340.28;4358698;32;33627;-85
2021/12/11 07:28:43;;;;;;;;;;;;;;;4.54;65.15;99350.69;4352937;32;35877;-86
2021/12/11 07:31:11;;;;;;;;;;;;;;;4.51;65.72;99358.84;4353544;32;32486;-85
2021/12/11 07:33:39;;;;;;;;;;;;;;;4.62;65.57;99358.84;4363302;32;32799;-85
2021/12/11 07:36:07;;;;;;;;;;;;;;;4.68;65.63;99364.47;4351630;32;32369;-86
2021/12/11 07:38:35;;;;;;;;;;;;;;;4.97;65.09;99360.41;4343731;32;34617;-87
2021/12/11 07:41:04;;;;;;;;;;;;;;;4.86;65.17;99364.84;4351368;32;33463;-85
2021/12/11 07:43:33;;;;;;;;;;;;;;;5.02;64.65;99368.81;4342264;32;33178;-86
2021/12/11 07:46:01;;;;;;;;;;;;;;;5.02;64.50;99360.91;4352485;32;34416;-85
2021/12/11 07:48:28;;;;;;;;;;;;;;;5.07;64.73;99360.53;4356683;32;34128;-86
2021/12/11 07:50:56;;;;;;;;;;;;;;;5.05;64.60;99363.28;4362970;32;35239;-86
2021/12/11 07:53:25;;;;;;;;;;;;;;;5.33;63.91;99359.31;4354335;32;33304;-85
2021/12/11 07:55:52;;;;;;;;;;;;;;;5.19;63.84;99359.56;4351262;32;32845;-86
2021/12/11 07:58:20;;;;;;;;;;;;;;;5.18;62.58;99350.00;4349654;32;33548;-86
2021/12/11 08:00:48;;;;;;;;;;;;;;;5.21;63.08;99352.38;4353613;32;34298;-86
2021/12/11 08:03:16;;;;;;;;;;;;;;;5.34;62.29;99353.91;4338734;32;35062;-86
2021/12/11 08:05:44;;;;;;;;;;;;;;;5.27;62.56;99352.72;4362334;32;33807;-86
2021/12/11 08:08:12;;;;;;;;;;;;;;;5.29;62.67;99363.97;4337717;32;34458;-86
2021/12/11 08:10:40;;;;;;;;;;;;;;;5.43;62.30;99360.25;4355331;32;33777;-86
2021/12/11 08:13:08;;;;;;;;;;;;;;;5.26;62.91;99358.13;4361887;32;33451;-86
2021/12/11 08:15:40;;;;;;;;;;;;;;;5.26;63.04;99368.69;4361981;32;34482;-86
2021/12/11 08:18:09;;;;;;;;;;;;;;;5.11;62.92;99372.50;4351050;32;35316;-86
2021/12/11 08:20:37;;;;;;;;;;;;;;;5.26;63.09;99369.50;4352214;32;33887;-87
2021/12/11 08:23:05;;;;;;;;;;;;;;;5.36;62.81;99370.44;4340321;32;32685;-86
2021/12/11 08:25:34;;;;;;;;;;;;;;;5.40;62.42;99376.31;4355258;32;33969;-86
2021/12/11 08:28:03;;;;;;;;;;;;;;;5.34;62.68;99377.66;4355922;32;34943;-85
2021/12/11 08:30:31;;;;;;;;;;;;;;;5.47;61.88;99378.34;4352614;32;35201;-86
2021/12/11 08:33:00;;;;;;;;;;;;;;;5.67;60.79;99378.44;4362894;32;33772;-86
2021/12/11 08:35:28;;;;;;;;;;;;;;;5.63;61.37;99384.06;4364909;32;33937;-86
2021/12/11 08:37:56;;;;;;;;;;;;;;;5.09;62.99;99387.62;4351967;32;33222;-87
2021/12/11 08:40:27;;;;;;;;;;;;;;;4.86;63.36;99386.78;4362346;32;35567;-85
2021/12/11 08:42:56;;;;;;;;;;;;;;;5.29;62.36;99389.53;4352437;32;33404;-86
2021/12/11 08:45:26;;;;;;;;;;;;;;;5.27;62.78;99396.72;4352504;32;33707;-85
2021/12/11 08:47:57;;;;;;;;;;;;;;;5.11;62.25;99397.09;4355095;32;34655;-85
2021/12/11 08:50:27;;;;;;;;;;;;;;;4.75;63.59;99392.03;4355243;32;33693;-89
2021/12/11 08:53:02;;;;;;;;;;;;;;;4.85;63.23;99393.00;4354652;32;33195;-84
2021/12/11 08:55:34;;;;;;;;;;;;;;;5.09;62.50;99387.62;4353326;32;34853;-86
2021/12/11 08:58:02;;;;;;;;;;;;;;;5.30;61.94;99391.19;4352715;32;36100;-86
2021/12/11 09:00:32;;;;;;;;;;;;;;;5.32;61.92;99403.31;4353005;32;34479;-85
2021/12/11 09:03:03;;;;;;;;;;;;;;;5.08;62.59;99407.84;4349998;32;33831;-86
2021/12/11 09:05:38;;;;;;;;;;;;;;;5.28;62.41;99404.50;4349565;32;34116;-87
2021/12/11 09:08:14;;;;;;;;;;;;;;;5.47;61.73;99403.91;4352923;32;32948;-86
2021/12/11 09:11:14;;;;;;;;;;;;;;;5.20;61.88;99408.72;4352320;32;34349;-86
2021/12/11 09:13:42;;;;;;;;;;;;;;;5.40;61.31;99414.09;4306713;33;32987;-86
2021/12/11 09:16:18;;;;;;;;;;;;;;;5.12;62.38;99422.50;4307435;33;32703;-87
2021/12/11 09:18:53;;;;;;;;;;;;;;;5.61;60.81;99413.22;4308157;33;33576;-86
2021/12/11 09:21:26;;;;;;;;;;;;;;;5.25;61.91;99422.34;4307857;33;34068;-86
2021/12/11 09:24:02;;;;;;;;;;;;;;;5.45;61.44;99424.28;4307302;33;32978;-86
2021/12/11 09:26:38;;;;;;;;;;;;;;;5.26;62.22;99434.59;4306687;33;33327;-86
2021/12/11 09:29:08;;;;;;;;;;;;;;;5.57;61.39;99437.31;4306994;33;34427;-85
2021/12/11 09:31:58;;;;;;;;;;;;;;;5.67;60.98;99443.56;4306888;33;32838;-85
2021/12/11 09:34:28;;;;;;;;;;;;;;;5.78;60.24;99438.28;4307247;33;33746;-85
2021/12/11 09:36:57;;;;;;;;;;;;;;;5.35;61.67;99445.25;4306796;33;33598;-86
2021/12/11 09:39:28;;;;;;;;;;;;;;;5.46;60.92;99447.88;4294701;33;34603;-86
2021/12/11 09:41:57;;;;;;;;;;;;;;;4.85;62.69;99452.75;4307376;33;32933;-86
2021/12/11 09:44:29;;;;;;;;;;;;;;;4.93;62.51;99463.56;4307450;33;33199;-85
2021/12/11 09:47:00;;;;;;;;;;;;;;;4.78;63.06;99465.56;4294853;33;34053;-86
2021/12/11 09:49:29;;;;;;;;;;;;;;;5.37;60.74;99469.72;4322966;32;34997;-86
2021/12/11 09:52:04;;;;;;;;;;;;;;;5.32;61.71;99457.84;4351365;32;34667;-86
2021/12/11 09:54:32;;;;;;;;;;;;;;;5.07;62.46;99455.44;4352834;32;33626;-86
2021/12/11 09:57:06;;;;;;;;;;;;;;;5.35;61.97;99450.53;4374241;32;34233;-86
2021/12/11 09:59:35;;;;;;;;;;;;;;;5.69;60.97;99450.38;4354349;32;34882;-86
2021/12/11 10:02:04;;;;;;;;;;;;;;;5.81;60.49;99446.81;4352683;32;34854;-85
2021/12/11 10:04:36;;;;;;;;;;;;;;;5.68;61.73;99442.63;4372158;32;33854;-86
2021/12/11 10:09:41;;;;;;;;;;;;;;;5.47;61.80;99427.63;4352048;32;33947;-86
2021/12/11 10:12:13;;;;;;;;;;;;;;;5.72;61.54;99428.19;4339670;32;34735;-86
2021/12/11 10:14:52;;;;;;;;;;;;;;;5.77;61.06;99424.22;4357127;32;31727;-86
2021/12/11 10:17:23;;;;;;;;;;;;;;;5.92;60.83;99420.38;4342499;32;32713;-86
2021/12/11 10:19:52;;;;;;;;;;;;;;;5.67;60.75;99423.28;4352516;32;35954;-86
2021/12/11 10:22:22;;;;;;;;;;;;;;;5.81;60.43;99427.50;4358122;32;35274;-86
2021/12/11 10:24:51;;;;;;;;;;;;;;;5.25;62.39;99428.47;4352971;32;34045;-86
2021/12/11 10:27:20;;;;;;;;;;;;;;;5.53;61.78;99420.94;4356741;32;33661;-86
2021/12/11 10:29:49;;;;;;;;;;;;;;;5.68;60.99;99424.13;4340207;32;34797;-86
2021/12/11 10:32:18;;;;;;;;;;;;;;;5.57;61.39;99430.25;4352114;32;35153;-86
2021/12/11 10:34:48;;;;;;;;;;;;;;;5.66;61.52;99437.44;4357271;32;32977;-86
2021/12/11 10:37:26;;;;;;;;;;;;;;;5.76;61.15;99440.16;4350357;32;33776;-86
2021/12/11 10:39:55;;;;;;;;;;;;;;;5.35;62.03;99444.44;4352861;32;35523;-85
2021/12/11 10:42:32;;;;;;;;;;;;;;;5.36;62.12;99449.56;4352639;32;34894;-84
2021/12/11 10:45:05;;;;;;;;;;;;;;;5.22;62.29;99455.09;4351418;32;34625;-86
2021/12/11 10:47:36;;;;;;;;;;;;;;;5.65;61.23;99446.31;4353466;32;33775;-86
2021/12/11 10:50:19;;;;;;;;;;;;;;;5.45;61.83;99451.50;4345532;32;36487;-85
2021/12/11 10:52:48;;;;;;;;;;;;;;;5.72;61.15;99450.16;4357918;32;34779;-86
2021/12/11 10:55:18;;;;;;;;;;;;;;;5.38;62.09;99434.47;4358657;32;33542;-87
2021/12/11 10:57:47;;;;;;;;;;;;;;;5.14;62.59;99441.66;4369163;32;32891;-85
2021/12/11 11:00:22;;;;;;;;;;;;;;;4.92;63.13;99439.00;4370974;32;34285;-84
2021/12/11 11:02:51;;;;;;;;;;;;;;;5.15;63.40;99443.34;4335556;32;34465;-86
2021/12/11 11:05:21;;;;;;;;;;;;;;;5.55;61.70;99441.88;4357593;32;33792;-86
2021/12/11 11:07:49;;;;;;;;;;;;;;;5.59;61.20;99430.97;4371199;32;34640;-87
2021/12/11 11:10:19;;;;;;;;;;;;;;;5.34;62.44;99429.53;4372510;32;34957;-86
2021/12/11 11:12:46;;;;;;;;;;;;;;;5.46;62.23;99424.16;4352201;32;34676;-86
2021/12/11 11:15:17;;;;;;;;;;;;;;;5.24;63.06;99428.59;4340797;32;32657;-86
2021/12/11 11:17:44;;;;;;;;;;;;;;;5.08;63.68;99430.75;4365170;32;32842;-86
2021/12/11 11:20:12;;;;;;;;;;;;;;;4.79;64.25;99440.91;4352579;32;34918;-87
2021/12/11 11:22:42;;;;;;;;;;;;;;;5.32;62.79;99427.06;4344978;32;33353;-86
2021/12/11 11:25:14;;;;;;;;;;;;;;;5.53;62.28;99426.19;4368405;32;31629;-86
2021/12/11 11:27:43;;;;;;;;;;;;;;;5.61;61.90;99418.50;4355642;32;32246;-87
2021/12/11 11:30:16;;;;;;;;;;;;;;;5.16;63.09;99425.72;4352522;32;36566;-86
2021/12/11 11:32:44;;;;;;;;;;;;;;;5.41;62.32;99420.19;4329654;32;871949;-86
2021/12/11 11:35:17;;;;;;;;;;;;;;;5.15;63.09;99429.31;4368777;32;31978;-86
2021/12/11 11:37:46;;;;;;;;;;;;;;;4.94;63.51;99425.69;4357144;32;33986;-85
2021/12/11 11:40:17;;;;;;;;;;;;;;;4.93;63.97;99429.31;4364623;32;34980;-85
2021/12/11 11:42:45;;;;;;;;;;;;;;;5.40;62.75;99419.38;4353465;32;34329;-84
2021/12/11 11:45:13;;;;;;;;;;;;;;;5.06;63.53;99422.97;4364748;32;33220;-85
2021/12/11 11:47:41;;;;;;;;;;;;;;;5.05;63.65;99426.56;4354210;32;33520;-85
2021/12/11 11:50:12;;;;;;;;;;;;;;;5.29;62.88;99422.00;4350919;32;35629;-85
2021/12/11 11:52:41;;;;;;;;;;;;;;;5.27;63.33;99433.66;4352888;32;34091;-85
2021/12/11 11:55:12;;;;;;;;;;;;;;;5.36;63.05;99451.38;4355661;32;33095;-84
2021/12/11 11:57:41;;;;;;;;;;;;;;;5.76;61.83;99441.03;4365348;32;32378;-83
2021/12/11 12:00:16;;;;;;;;;;;;;;;5.98;61.40;99453.38;4359254;32;34038;-85
2021/12/11 12:02:45;;;;;;;;;;;;;;;6.08;60.83;99457.75;4364333;32;35339;-84
2021/12/11 12:05:13;;;;;;;;;;;;;;;6.05;59.82;99452.75;4339809;32;33263;-85
2021/12/11 12:07:41;;;;;;;;;;;;;;;6.02;60.18;99466.19;4364124;32;32888;-85
2021/12/11 12:10:27;;;;;;;;;;;;;;;6.01;60.65;99459.25;4353245;32;36060;-84
2021/12/11 12:12:56;;;;;;;;;;;;;;;6.11;59.65;99469.88;4351573;32;36039;-84
2021/12/11 12:15:31;;;;;;;;;;;;;;;6.11;60.55;99475.16;4351995;32;31697;-85
2021/12/11 12:18:01;;;;;;;;;;;;;;;5.86;61.29;99468.37;4339787;32;34895;-85
2021/12/11 12:20:29;;;;;;;;;;;;;;;5.78;62.00;99475.22;4352166;32;34409;-85
2021/12/11 12:22:58;;;;;;;;;;;;;;;5.98;61.33;99477.13;4354724;32;34054;-85
2021/12/11 12:25:25;;;;;;;;;;;;;;;6.23;60.95;99479.47;4355044;32;33465;-84
2021/12/11 12:27:53;;;;;;;;;;;;;;;6.27;60.65;99494.97;4340386;32;33222;-84
2021/12/11 12:30:23;;;;;;;;;;;;;;;6.47;60.20;99493.31;4362668;32;36169;-85
2021/12/11 12:32:54;;;;;;;;;;;;;;;6.40;60.21;99485.06;4341688;32;34235;-85
2021/12/11 12:35:23;;;;;;;;;;;;;;;6.44;60.24;99477.72;4351156;32;31931;-85
2021/12/11 12:37:51;;;;;;;;;;;;;;;6.71;59.63;99464.88;4344791;32;34064;-85
2021/12/11 12:40:27;;;;;;;;;;;;;;;6.83;59.19;99469.13;4351642;32;34084;-85
2021/12/11 12:43:05;;;;;;;;;;;;;;;7.01;58.69;99473.69;4336981;32;35570;-85
2021/12/11 12:45:35;;;;;;;;;;;;;;;7.04;58.78;99477.88;4342065;32;32075;-85
2021/12/11 12:48:05;;;;;;;;;;;;;;;7.02;58.91;99474.53;4338447;32;33196;-84
2021/12/11 12:50:40;;;;;;;;;;;;;;;6.69;59.23;99466.78;4331193;32;34985;-85
2021/12/11 12:53:08;;;;;;;;;;;;;;;6.30;59.62;99465.63;4350504;32;34330;-85
2021/12/11 12:55:38;;;;;;;;;;;;;;;6.85;58.67;99459.25;4336295;32;32438;-84
2021/12/11 12:58:08;;;;;;;;;;;;;;;6.80;58.79;99458.81;4341549;32;33648;-85
2021/12/11 13:00:45;;;;;;;;;;;;;;;6.82;58.93;99462.16;4328331;32;34158;-85
2021/12/11 13:03:16;;;;;;;;;;;;;;;6.80;58.90;99461.44;4327592;32;34785;-85
2021/12/11 13:05:48;;;;;;;;;;;;;;;6.48;59.81;99461.50;4339214;32;33577;-85
2021/12/11 13:08:17;;;;;;;;;;;;;;;6.62;59.67;99453.22;4330714;32;32874;-85
2021/12/11 13:10:49;;;;;;;;;;;;;;;6.47;58.94;99454.53;4330385;32;35195;-85
2021/12/11 13:13:22;;;;;;;;;;;;;;;6.34;59.80;99460.94;4350339;32;34740;-84
2021/12/11 13:16:02;;;;;;;;;;;;;;;6.34;59.93;99453.84;4307696;32;32001;-85
2021/12/11 13:18:33;;;;;;;;;;;;;;;6.14;60.65;99465.19;4339141;32;33778;-85
2021/12/11 13:21:15;;;;;;;;;;;;;;;6.24;60.39;99458.22;4318449;32;34135;-85
2021/12/11 13:23:47;;;;;;;;;;;;;;;6.33;60.31;99461.91;4336858;32;34035;-85
2021/12/11 13:26:17;;;;;;;;;;;;;;;5.96;60.86;99471.16;4334733;32;32079;-85
2021/12/11 13:28:48;;;;;;;;;;;;;;;5.50;62.34;99478.38;4329332;32;34351;-85
2021/12/11 13:31:18;;;;;;;;;;;;;;;5.34;63.15;99480.50;4350252;32;35859;-85
2021/12/11 13:33:46;;;;;;;;;;;;;;;5.56;62.69;99484.00;4347510;32;34004;-85
2021/12/11 13:36:18;;;;;;;;;;;;;;;5.97;61.19;99484.22;4353159;32;33699;-85
2021/12/11 13:38:46;;;;;;;;;;;;;;;6.11;61.03;99477.81;4349338;32;33339;-85
2021/12/11 13:41:16;;;;;;;;;;;;;;;6.11;61.14;99481.31;4344643;32;33484;-85
2021/12/11 13:44:04;;;;;;;;;;;;;;;6.07;60.93;99490.41;4343424;32;35528;-87